sensor_id;sensor_type;location;lat;lon;timestamp;P1;durP1;ratioP1;P2;durP2;ratioP2
35462;SDS011;21578;47.892;9.970;2024-01-06T00:02:45;4.47;;;4.07;;
35462;SDS011;21578;47.892;9.970;2024-01-06T00:07:33;3.47;;;2.90;;
35462;SDS011;21578;47.892;9.970;2024-01-06T00:12:20;3.10;;;2.80;;
35462;SDS011;21578;47.892;9.970;2024-01-06T00:17:07;0.90;;;0.70;;
35462;SDS011;21578;47.892;9.970;2024-01-06T00:21:53;2.70;;;0.90;;
35462;SDS011;21578;47.892;9.970;2024-01-06T00:26:41;1.33;;;1.10;;
35462;SDS011;21578;47.892;9.970;2024-01-06T00:31:28;1.43;;;1.33;;
35462;SDS011;21578;47.892;9.970;2024-01-06T00:36:15;1.53;;;1.20;;
35462;SDS011;21578;47.892;9.970;2024-01-06T00:41:02;1.73;;;1.63;;
35462;SDS011;21578;47.892;9.970;2024-01-06T00:45:50;1.33;;;1.13;;
35462;SDS011;21578;47.892;9.970;2024-01-06T00:50:36;0.83;;;0.60;;
35462;SDS011;21578;47.892;9.970;2024-01-06T00:55:23;0.80;;;0.53;;
35462;SDS011;21578;47.892;9.970;2024-01-06T01:00:11;1.60;;;0.80;;
35462;SDS011;21578;47.892;9.970;2024-01-06T01:04:59;0.80;;;0.70;;
35462;SDS011;21578;47.892;9.970;2024-01-06T01:09:47;1.17;;;0.50;;
35462;SDS011;21578;47.892;9.970;2024-01-06T01:14:33;1.50;;;0.57;;
35462;SDS011;21578;47.892;9.970;2024-01-06T01:19:20;1.67;;;0.50;;
35462;SDS011;21578;47.892;9.970;2024-01-06T01:24:08;1.43;;;0.50;;
35462;SDS011;21578;47.892;9.970;2024-01-06T01:28:55;0.87;;;0.60;;
35462;SDS011;21578;47.892;9.970;2024-01-06T01:33:41;0.70;;;0.40;;
35462;SDS011;21578;47.892;9.970;2024-01-06T01:38:28;0.30;;;0.20;;
35462;SDS011;21578;47.892;9.970;2024-01-06T01:43:17;1.33;;;0.40;;
35462;SDS011;21578;47.892;9.970;2024-01-06T01:48:04;0.80;;;0.40;;
35462;SDS011;21578;47.892;9.970;2024-01-06T01:52:51;1.00;;;0.40;;
35462;SDS011;21578;47.892;9.970;2024-01-06T01:57:38;0.50;;;0.30;;
35462;SDS011;21578;47.892;9.970;2024-01-06T02:02:26;2.17;;;0.53;;
35462;SDS011;21578;47.892;9.970;2024-01-06T02:07:14;1.43;;;0.40;;
35462;SDS011;21578;47.892;9.970;2024-01-06T02:12:01;1.00;;;0.50;;
35462;SDS011;21578;47.892;9.970;2024-01-06T02:16:48;1.07;;;0.30;;
35462;SDS011;21578;47.892;9.970;2024-01-06T02:21:36;0.73;;;0.40;;
35462;SDS011;21578;47.892;9.970;2024-01-06T02:26:29;0.43;;;0.37;;
35462;SDS011;21578;47.892;9.970;2024-01-06T02:31:15;0.43;;;0.43;;
35462;SDS011;21578;47.892;9.970;2024-01-06T02:36:02;0.53;;;0.40;;
35462;SDS011;21578;47.892;9.970;2024-01-06T02:40:49;0.77;;;0.47;;
35462;SDS011;21578;47.892;9.970;2024-01-06T02:45:37;0.50;;;0.50;;
35462;SDS011;21578;47.892;9.970;2024-01-06T02:50:24;0.60;;;0.60;;
35462;SDS011;21578;47.892;9.970;2024-01-06T02:55:11;0.67;;;0.60;;
35462;SDS011;21578;47.892;9.970;2024-01-06T02:59:58;1.33;;;1.23;;
35462;SDS011;21578;47.892;9.970;2024-01-06T03:04:46;1.80;;;1.70;;
35462;SDS011;21578;47.892;9.970;2024-01-06T03:09:32;2.30;;;2.03;;
35462;SDS011;21578;47.892;9.970;2024-01-06T03:14:19;1.70;;;1.60;;
35462;SDS011;21578;47.892;9.970;2024-01-06T03:19:06;2.23;;;2.00;;
35462;SDS011;21578;47.892;9.970;2024-01-06T03:23:54;2.13;;;1.90;;
35462;SDS011;21578;47.892;9.970;2024-01-06T03:28:41;2.23;;;2.03;;
35462;SDS011;21578;47.892;9.970;2024-01-06T03:33:28;1.63;;;1.50;;
35462;SDS011;21578;47.892;9.970;2024-01-06T03:38:14;2.60;;;1.57;;
35462;SDS011;21578;47.892;9.970;2024-01-06T03:43:03;2.20;;;2.00;;
35462;SDS011;21578;47.892;9.970;2024-01-06T03:47:49;1.90;;;1.80;;
35462;SDS011;21578;47.892;9.970;2024-01-06T03:52:36;2.33;;;2.07;;
35462;SDS011;21578;47.892;9.970;2024-01-06T03:57:23;2.00;;;1.90;;
35462;SDS011;21578;47.892;9.970;2024-01-06T04:02:11;2.07;;;1.90;;
35462;SDS011;21578;47.892;9.970;2024-01-06T04:06:57;2.00;;;1.90;;
35462;SDS011;21578;47.892;9.970;2024-01-06T04:11:46;2.40;;;2.20;;
35462;SDS011;21578;47.892;9.970;2024-01-06T04:16:33;2.30;;;2.10;;
35462;SDS011;21578;47.892;9.970;2024-01-06T04:21:21;1.90;;;1.80;;
35462;SDS011;21578;47.892;9.970;2024-01-06T04:26:08;4.30;;;2.90;;
35462;SDS011;21578;47.892;9.970;2024-01-06T04:30:55;2.83;;;2.30;;
35462;SDS011;21578;47.892;9.970;2024-01-06T04:35:41;2.30;;;2.10;;
35462;SDS011;21578;47.892;9.970;2024-01-06T04:40:30;2.80;;;2.60;;
35462;SDS011;21578;47.892;9.970;2024-01-06T04:45:17;2.30;;;2.10;;
35462;SDS011;21578;47.892;9.970;2024-01-06T04:50:05;3.87;;;3.10;;
35462;SDS011;21578;47.892;9.970;2024-01-06T04:54:52;3.20;;;2.90;;
35462;SDS011;21578;47.892;9.970;2024-01-06T04:59:40;3.80;;;3.23;;
35462;SDS011;21578;47.892;9.970;2024-01-06T05:04:27;3.27;;;2.97;;
35462;SDS011;21578;47.892;9.970;2024-01-06T05:09:15;3.43;;;3.13;;
35462;SDS011;21578;47.892;9.970;2024-01-06T05:14:02;2.97;;;2.73;;
35462;SDS011;21578;47.892;9.970;2024-01-06T05:18:50;3.40;;;3.10;;
35462;SDS011;21578;47.892;9.970;2024-01-06T05:23:37;3.30;;;3.00;;
35462;SDS011;21578;47.892;9.970;2024-01-06T05:28:24;4.00;;;3.17;;
35462;SDS011;21578;47.892;9.970;2024-01-06T05:33:11;3.20;;;2.90;;
35462;SDS011;21578;47.892;9.970;2024-01-06T05:38:01;2.97;;;2.77;;
35462;SDS011;21578;47.892;9.970;2024-01-06T05:42:49;3.20;;;3.00;;
35462;SDS011;21578;47.892;9.970;2024-01-06T05:47:37;3.77;;;3.10;;
35462;SDS011;21578;47.892;9.970;2024-01-06T05:52:24;3.20;;;2.90;;
35462;SDS011;21578;47.892;9.970;2024-01-06T05:57:12;3.40;;;3.10;;
35462;SDS011;21578;47.892;9.970;2024-01-06T06:01:58;2.93;;;2.73;;
35462;SDS011;21578;47.892;9.970;2024-01-06T06:06:45;3.27;;;2.97;;
35462;SDS011;21578;47.892;9.970;2024-01-06T06:11:32;3.57;;;3.27;;
35462;SDS011;21578;47.892;9.970;2024-01-06T06:16:20;3.80;;;3.50;;
35462;SDS011;21578;47.892;9.970;2024-01-06T06:21:07;5.00;;;4.20;;
35462;SDS011;21578;47.892;9.970;2024-01-06T06:25:54;5.10;;;4.03;;
35462;SDS011;21578;47.892;9.970;2024-01-06T06:30:40;6.40;;;5.50;;
35462;SDS011;21578;47.892;9.970;2024-01-06T06:35:29;6.17;;;5.27;;
35462;SDS011;21578;47.892;9.970;2024-01-06T06:40:16;4.40;;;4.00;;
35462;SDS011;21578;47.892;9.970;2024-01-06T06:45:03;4.00;;;3.60;;
35462;SDS011;21578;47.892;9.970;2024-01-06T06:49:51;3.87;;;3.47;;
35462;SDS011;21578;47.892;9.970;2024-01-06T06:54:39;4.47;;;4.07;;
35462;SDS011;21578;47.892;9.970;2024-01-06T06:59:26;4.23;;;3.83;;
35462;SDS011;21578;47.892;9.970;2024-01-06T07:04:13;4.07;;;3.77;;
35462;SDS011;21578;47.892;9.970;2024-01-06T07:08:59;3.60;;;3.30;;
35462;SDS011;21578;47.892;9.970;2024-01-06T07:13:48;3.90;;;3.50;;
35462;SDS011;21578;47.892;9.970;2024-01-06T07:18:35;4.07;;;3.50;;
35462;SDS011;21578;47.892;9.970;2024-01-06T07:23:22;4.10;;;3.80;;
35462;SDS011;21578;47.892;9.970;2024-01-06T07:28:08;4.53;;;4.13;;
35462;SDS011;21578;47.892;9.970;2024-01-06T07:32:56;4.50;;;4.10;;
35462;SDS011;21578;47.892;9.970;2024-01-06T07:37:43;5.33;;;4.83;;
35462;SDS011;21578;47.892;9.970;2024-01-06T07:42:30;4.63;;;4.20;;
35462;SDS011;21578;47.892;9.970;2024-01-06T07:47:17;4.73;;;4.30;;
35462;SDS011;21578;47.892;9.970;2024-01-06T07:52:05;5.80;;;5.20;;
35462;SDS011;21578;47.892;9.970;2024-01-06T07:56:52;5.17;;;4.67;;
35462;SDS011;21578;47.892;9.970;2024-01-06T08:01:39;8.43;;;6.93;;
35462;SDS011;21578;47.892;9.970;2024-01-06T08:06:27;15.93;;;11.00;;
35462;SDS011;21578;47.892;9.970;2024-01-06T08:11:16;15.67;;;9.27;;
35462;SDS011;21578;47.892;9.970;2024-01-06T08:16:02;7.67;;;6.87;;
35462;SDS011;21578;47.892;9.970;2024-01-06T08:20:51;5.57;;;4.80;;
35462;SDS011;21578;47.892;9.970;2024-01-06T08:25:38;5.63;;;5.03;;
35462;SDS011;21578;47.892;9.970;2024-01-06T08:30:26;5.80;;;5.00;;
35462;SDS011;21578;47.892;9.970;2024-01-06T08:35:13;6.10;;;5.50;;
35462;SDS011;21578;47.892;9.970;2024-01-06T08:40:02;6.03;;;5.03;;
35462;SDS011;21578;47.892;9.970;2024-01-06T08:44:49;7.93;;;6.33;;
35462;SDS011;21578;47.892;9.970;2024-01-06T08:49:38;8.53;;;6.87;;
35462;SDS011;21578;47.892;9.970;2024-01-06T08:54:24;6.93;;;5.70;;
35462;SDS011;21578;47.892;9.970;2024-01-06T08:59:11;6.43;;;5.47;;
35462;SDS011;21578;47.892;9.970;2024-01-06T09:03:58;4.80;;;4.27;;
35462;SDS011;21578;47.892;9.970;2024-01-06T09:08:46;5.37;;;4.70;;
35462;SDS011;21578;47.892;9.970;2024-01-06T09:13:32;5.60;;;4.63;;
35462;SDS011;21578;47.892;9.970;2024-01-06T09:18:19;5.13;;;4.63;;
35462;SDS011;21578;47.892;9.970;2024-01-06T09:23:06;4.80;;;4.40;;
35462;SDS011;21578;47.892;9.970;2024-01-06T09:27:54;4.93;;;4.43;;
35462;SDS011;21578;47.892;9.970;2024-01-06T09:32:41;5.37;;;4.57;;
35462;SDS011;21578;47.892;9.970;2024-01-06T09:37:29;5.63;;;4.73;;
35462;SDS011;21578;47.892;9.970;2024-01-06T09:42:16;15.13;;;9.30;;
35462;SDS011;21578;47.892;9.970;2024-01-06T09:47:04;15.37;;;10.00;;
35462;SDS011;21578;47.892;9.970;2024-01-06T09:51:51;13.07;;;8.00;;
35462;SDS011;21578;47.892;9.970;2024-01-06T09:56:44;10.40;;;7.63;;
35462;SDS011;21578;47.892;9.970;2024-01-06T10:01:32;10.40;;;7.20;;
35462;SDS011;21578;47.892;9.970;2024-01-06T10:06:20;7.87;;;6.30;;
35462;SDS011;21578;47.892;9.970;2024-01-06T10:11:07;6.67;;;5.80;;
35462;SDS011;21578;47.892;9.970;2024-01-06T10:15:55;6.33;;;5.03;;
35462;SDS011;21578;47.892;9.970;2024-01-06T10:20:43;4.90;;;4.40;;
35462;SDS011;21578;47.892;9.970;2024-01-06T10:25:32;6.07;;;4.73;;
35462;SDS011;21578;47.892;9.970;2024-01-06T10:30:18;6.00;;;5.40;;
35462;SDS011;21578;47.892;9.970;2024-01-06T10:35:05;5.87;;;5.20;;
35462;SDS011;21578;47.892;9.970;2024-01-06T10:40:04;7.13;;;5.23;;
35462;SDS011;21578;47.892;9.970;2024-01-06T10:44:54;6.73;;;5.20;;
35462;SDS011;21578;47.892;9.970;2024-01-06T10:49:40;7.07;;;6.10;;
35462;SDS011;21578;47.892;9.970;2024-01-06T10:54:27;6.20;;;5.37;;
35462;SDS011;21578;47.892;9.970;2024-01-06T10:59:15;6.90;;;5.40;;
35462;SDS011;21578;47.892;9.970;2024-01-06T11:04:03;7.87;;;4.73;;
35462;SDS011;21578;47.892;9.970;2024-01-06T11:08:53;19.27;;;5.30;;
35462;SDS011;21578;47.892;9.970;2024-01-06T11:13:45;5.73;;;4.77;;
35462;SDS011;21578;47.892;9.970;2024-01-06T11:18:33;5.27;;;4.73;;
35462;SDS011;21578;47.892;9.970;2024-01-06T11:23:24;5.77;;;4.83;;
35462;SDS011;21578;47.892;9.970;2024-01-06T11:28:10;4.53;;;3.70;;
35462;SDS011;21578;47.892;9.970;2024-01-06T11:32:58;5.13;;;4.07;;
35462;SDS011;21578;47.892;9.970;2024-01-06T11:37:52;7.70;;;5.83;;
35462;SDS011;21578;47.892;9.970;2024-01-06T11:42:43;8.73;;;5.93;;
35462;SDS011;21578;47.892;9.970;2024-01-06T11:47:32;5.20;;;4.17;;
35462;SDS011;21578;47.892;9.970;2024-01-06T11:52:18;4.70;;;4.20;;
35462;SDS011;21578;47.892;9.970;2024-01-06T11:57:05;5.70;;;4.70;;
35462;SDS011;21578;47.892;9.970;2024-01-06T12:01:53;6.13;;;4.43;;
35462;SDS011;21578;47.892;9.970;2024-01-06T12:06:40;4.77;;;4.37;;
35462;SDS011;21578;47.892;9.970;2024-01-06T12:11:27;5.40;;;4.33;;
35462;SDS011;21578;47.892;9.970;2024-01-06T12:16:14;4.83;;;4.30;;
35462;SDS011;21578;47.892;9.970;2024-01-06T12:21:02;4.67;;;4.07;;
35462;SDS011;21578;47.892;9.970;2024-01-06T12:25:49;4.47;;;4.07;;
35462;SDS011;21578;47.892;9.970;2024-01-06T12:30:38;4.10;;;3.73;;
35462;SDS011;21578;47.892;9.970;2024-01-06T12:35:24;5.37;;;3.43;;
35462;SDS011;21578;47.892;9.970;2024-01-06T12:40:13;4.87;;;3.30;;
35462;SDS011;21578;47.892;9.970;2024-01-06T12:45:02;4.67;;;4.23;;
35462;SDS011;21578;47.892;9.970;2024-01-06T12:49:49;6.73;;;4.13;;
35462;SDS011;21578;47.892;9.970;2024-01-06T12:54:36;7.57;;;5.10;;
35462;SDS011;21578;47.892;9.970;2024-01-06T12:59:24;6.37;;;5.23;;
35462;SDS011;21578;47.892;9.970;2024-01-06T13:04:11;45.93;;;9.93;;
35462;SDS011;21578;47.892;9.970;2024-01-06T13:08:58;4.73;;;4.23;;
35462;SDS011;21578;47.892;9.970;2024-01-06T13:13:45;5.07;;;4.47;;
35462;SDS011;21578;47.892;9.970;2024-01-06T13:18:33;4.83;;;4.40;;
35462;SDS011;21578;47.892;9.970;2024-01-06T13:23:19;5.83;;;4.40;;
35462;SDS011;21578;47.892;9.970;2024-01-06T13:28:06;5.63;;;5.03;;
35462;SDS011;21578;47.892;9.970;2024-01-06T13:32:53;7.40;;;5.43;;
35462;SDS011;21578;47.892;9.970;2024-01-06T13:37:41;5.87;;;4.57;;
35462;SDS011;21578;47.892;9.970;2024-01-06T13:42:30;5.40;;;4.70;;
35462;SDS011;21578;47.892;9.970;2024-01-06T13:47:17;7.47;;;5.33;;
35462;SDS011;21578;47.892;9.970;2024-01-06T13:52:04;6.63;;;5.40;;
35462;SDS011;21578;47.892;9.970;2024-01-06T13:56:54;5.90;;;5.30;;
35462;SDS011;21578;47.892;9.970;2024-01-06T14:01:40;7.07;;;4.80;;
35462;SDS011;21578;47.892;9.970;2024-01-06T14:06:27;5.30;;;4.80;;
35462;SDS011;21578;47.892;9.970;2024-01-06T14:11:15;7.30;;;5.37;;
35462;SDS011;21578;47.892;9.970;2024-01-06T14:16:03;6.57;;;5.80;;
35462;SDS011;21578;47.892;9.970;2024-01-06T14:20:50;6.97;;;4.97;;
35462;SDS011;21578;47.892;9.970;2024-01-06T14:25:37;5.80;;;5.20;;
35462;SDS011;21578;47.892;9.970;2024-01-06T14:30:23;6.50;;;5.57;;
35462;SDS011;21578;47.892;9.970;2024-01-06T14:35:12;7.43;;;5.57;;
35462;SDS011;21578;47.892;9.970;2024-01-06T14:39:59;6.20;;;5.60;;
35462;SDS011;21578;47.892;9.970;2024-01-06T14:44:50;5.50;;;4.93;;
35462;SDS011;21578;47.892;9.970;2024-01-06T14:49:36;5.73;;;4.90;;
35462;SDS011;21578;47.892;9.970;2024-01-06T14:54:24;5.07;;;4.57;;
35462;SDS011;21578;47.892;9.970;2024-01-06T14:59:15;4.77;;;4.07;;
35462;SDS011;21578;47.892;9.970;2024-01-06T15:04:02;6.60;;;4.30;;
35462;SDS011;21578;47.892;9.970;2024-01-06T15:08:49;6.10;;;4.20;;
35462;SDS011;21578;47.892;9.970;2024-01-06T15:13:37;6.30;;;4.77;;
35462;SDS011;21578;47.892;9.970;2024-01-06T15:18:24;5.07;;;4.50;;
35462;SDS011;21578;47.892;9.970;2024-01-06T15:23:11;4.13;;;3.73;;
35462;SDS011;21578;47.892;9.970;2024-01-06T15:27:58;5.10;;;4.57;;
35462;SDS011;21578;47.892;9.970;2024-01-06T15:32:46;5.33;;;4.23;;
35462;SDS011;21578;47.892;9.970;2024-01-06T15:37:33;4.43;;;3.90;;
35462;SDS011;21578;47.892;9.970;2024-01-06T15:42:20;6.43;;;4.90;;
35462;SDS011;21578;47.892;9.970;2024-01-06T15:47:07;5.23;;;4.27;;
35462;SDS011;21578;47.892;9.970;2024-01-06T15:51:55;5.23;;;4.13;;
35462;SDS011;21578;47.892;9.970;2024-01-06T15:56:42;4.37;;;3.93;;
35462;SDS011;21578;47.892;9.970;2024-01-06T16:01:29;5.13;;;4.60;;
35462;SDS011;21578;47.892;9.970;2024-01-06T16:06:16;5.80;;;3.80;;
35462;SDS011;21578;47.892;9.970;2024-01-06T16:11:04;5.13;;;4.63;;
35462;SDS011;21578;47.892;9.970;2024-01-06T16:15:51;6.13;;;4.63;;
35462;SDS011;21578;47.892;9.970;2024-01-06T16:20:38;4.27;;;3.87;;
35462;SDS011;21578;47.892;9.970;2024-01-06T16:25:25;4.70;;;4.17;;
35462;SDS011;21578;47.892;9.970;2024-01-06T16:30:13;5.17;;;4.53;;
35462;SDS011;21578;47.892;9.970;2024-01-06T16:35:00;5.10;;;4.23;;
35462;SDS011;21578;47.892;9.970;2024-01-06T16:39:47;5.10;;;4.33;;
35462;SDS011;21578;47.892;9.970;2024-01-06T16:44:34;5.80;;;4.40;;
35462;SDS011;21578;47.892;9.970;2024-01-06T16:49:22;6.37;;;4.93;;
35462;SDS011;21578;47.892;9.970;2024-01-06T16:54:09;5.60;;;4.53;;
35462;SDS011;21578;47.892;9.970;2024-01-06T16:58:56;4.87;;;4.37;;
35462;SDS011;21578;47.892;9.970;2024-01-06T17:03:43;4.73;;;4.33;;
35462;SDS011;21578;47.892;9.970;2024-01-06T17:08:31;5.23;;;4.60;;
35462;SDS011;21578;47.892;9.970;2024-01-06T17:13:18;6.13;;;4.97;;
35462;SDS011;21578;47.892;9.970;2024-01-06T17:18:06;7.37;;;5.00;;
35462;SDS011;21578;47.892;9.970;2024-01-06T17:22:53;6.73;;;5.07;;
35462;SDS011;21578;47.892;9.970;2024-01-06T17:27:41;6.70;;;5.53;;
35462;SDS011;21578;47.892;9.970;2024-01-06T17:32:30;6.13;;;5.33;;
35462;SDS011;21578;47.892;9.970;2024-01-06T17:37:18;5.80;;;5.00;;
35462;SDS011;21578;47.892;9.970;2024-01-06T17:42:06;5.30;;;4.80;;
35462;SDS011;21578;47.892;9.970;2024-01-06T17:46:54;7.37;;;5.43;;
35462;SDS011;21578;47.892;9.970;2024-01-06T17:51:41;6.40;;;5.80;;
35462;SDS011;21578;47.892;9.970;2024-01-06T17:56:28;8.13;;;6.63;;
35462;SDS011;21578;47.892;9.970;2024-01-06T18:01:15;7.90;;;6.60;;
35462;SDS011;21578;47.892;9.970;2024-01-06T18:06:03;8.57;;;7.40;;
35462;SDS011;21578;47.892;9.970;2024-01-06T18:10:51;8.10;;;6.73;;
35462;SDS011;21578;47.892;9.970;2024-01-06T18:15:37;7.90;;;6.10;;
35462;SDS011;21578;47.892;9.970;2024-01-06T18:20:24;7.77;;;6.97;;
35462;SDS011;21578;47.892;9.970;2024-01-06T18:25:12;7.60;;;6.53;;
35462;SDS011;21578;47.892;9.970;2024-01-06T18:29:59;9.97;;;8.27;;
35462;SDS011;21578;47.892;9.970;2024-01-06T18:34:46;18.47;;;12.63;;
35462;SDS011;21578;47.892;9.970;2024-01-06T18:39:32;10.93;;;8.87;;
35462;SDS011;21578;47.892;9.970;2024-01-06T18:44:20;8.60;;;7.33;;
35462;SDS011;21578;47.892;9.970;2024-01-06T18:49:07;5.37;;;4.87;;
35462;SDS011;21578;47.892;9.970;2024-01-06T18:53:54;4.60;;;4.20;;
35462;SDS011;21578;47.892;9.970;2024-01-06T18:58:41;4.00;;;3.70;;
35462;SDS011;21578;47.892;9.970;2024-01-06T19:03:29;3.97;;;3.60;;
35462;SDS011;21578;47.892;9.970;2024-01-06T19:08:16;6.07;;;4.53;;
35462;SDS011;21578;47.892;9.970;2024-01-06T19:13:02;6.30;;;5.20;;
35462;SDS011;21578;47.892;9.970;2024-01-06T19:17:53;5.30;;;4.80;;
35462;SDS011;21578;47.892;9.970;2024-01-06T19:22:41;5.77;;;5.13;;
35462;SDS011;21578;47.892;9.970;2024-01-06T19:27:28;8.07;;;5.97;;
35462;SDS011;21578;47.892;9.970;2024-01-06T19:32:17;7.47;;;6.77;;
35462;SDS011;21578;47.892;9.970;2024-01-06T19:37:04;7.50;;;6.77;;
35462;SDS011;21578;47.892;9.970;2024-01-06T19:41:52;5.03;;;4.53;;
35462;SDS011;21578;47.892;9.970;2024-01-06T19:46:38;4.77;;;4.37;;
35462;SDS011;21578;47.892;9.970;2024-01-06T19:51:25;4.13;;;3.73;;
35462;SDS011;21578;47.892;9.970;2024-01-06T19:56:12;4.60;;;4.20;;
35462;SDS011;21578;47.892;9.970;2024-01-06T20:01:01;4.13;;;3.83;;
35462;SDS011;21578;47.892;9.970;2024-01-06T20:05:48;3.77;;;3.47;;
35462;SDS011;21578;47.892;9.970;2024-01-06T20:10:35;18.27;;;8.23;;
35462;SDS011;21578;47.892;9.970;2024-01-06T20:15:22;13.70;;;8.33;;
35462;SDS011;21578;47.892;9.970;2024-01-06T20:20:10;5.57;;;4.37;;
35462;SDS011;21578;47.892;9.970;2024-01-06T20:24:57;4.87;;;3.70;;
35462;SDS011;21578;47.892;9.970;2024-01-06T20:29:44;3.67;;;3.17;;
35462;SDS011;21578;47.892;9.970;2024-01-06T20:34:33;11.83;;;6.00;;
35462;SDS011;21578;47.892;9.970;2024-01-06T20:39:24;4.07;;;3.07;;
35462;SDS011;21578;47.892;9.970;2024-01-06T20:44:11;2.37;;;2.17;;
35462;SDS011;21578;47.892;9.970;2024-01-06T20:48:58;2.43;;;2.30;;
35462;SDS011;21578;47.892;9.970;2024-01-06T20:53:44;2.90;;;2.60;;
35462;SDS011;21578;47.892;9.970;2024-01-06T20:58:33;1.50;;;1.40;;
35462;SDS011;21578;47.892;9.970;2024-01-06T21:03:20;1.43;;;1.40;;
35462;SDS011;21578;47.892;9.970;2024-01-06T21:08:07;1.77;;;1.67;;
35462;SDS011;21578;47.892;9.970;2024-01-06T21:12:53;1.80;;;1.70;;
35462;SDS011;21578;47.892;9.970;2024-01-06T21:17:42;2.37;;;2.17;;
35462;SDS011;21578;47.892;9.970;2024-01-06T21:22:28;1.90;;;1.80;;
35462;SDS011;21578;47.892;9.970;2024-01-06T21:27:15;4.47;;;3.73;;
35462;SDS011;21578;47.892;9.970;2024-01-06T21:32:02;3.87;;;2.77;;
35462;SDS011;21578;47.892;9.970;2024-01-06T21:36:51;2.30;;;2.10;;
35462;SDS011;21578;47.892;9.970;2024-01-06T21:41:38;2.40;;;2.20;;
35462;SDS011;21578;47.892;9.970;2024-01-06T21:46:25;2.40;;;2.20;;
35462;SDS011;21578;47.892;9.970;2024-01-06T21:51:12;2.77;;;2.57;;
35462;SDS011;21578;47.892;9.970;2024-01-06T21:56:00;2.63;;;2.30;;
35462;SDS011;21578;47.892;9.970;2024-01-06T22:00:48;2.53;;;2.33;;
35462;SDS011;21578;47.892;9.970;2024-01-06T22:05:36;2.60;;;2.40;;
35462;SDS011;21578;47.892;9.970;2024-01-06T22:10:23;2.60;;;2.40;;
35462;SDS011;21578;47.892;9.970;2024-01-06T22:15:14;3.00;;;2.70;;
35462;SDS011;21578;47.892;9.970;2024-01-06T22:20:01;3.63;;;3.00;;
35462;SDS011;21578;47.892;9.970;2024-01-06T22:24:49;3.17;;;2.73;;
35462;SDS011;21578;47.892;9.970;2024-01-06T22:29:35;4.33;;;3.40;;
35462;SDS011;21578;47.892;9.970;2024-01-06T22:34:25;3.57;;;3.20;;
35462;SDS011;21578;47.892;9.970;2024-01-06T22:39:12;4.23;;;3.80;;
35462;SDS011;21578;47.892;9.970;2024-01-06T22:44:00;4.03;;;3.63;;
35462;SDS011;21578;47.892;9.970;2024-01-06T22:48:47;3.40;;;3.10;;
35462;SDS011;21578;47.892;9.970;2024-01-06T22:53:35;2.90;;;2.60;;
35462;SDS011;21578;47.892;9.970;2024-01-06T22:58:21;3.23;;;2.93;;
35462;SDS011;21578;47.892;9.970;2024-01-06T23:03:08;3.03;;;2.53;;
35462;SDS011;21578;47.892;9.970;2024-01-06T23:07:55;3.20;;;2.63;;
35462;SDS011;21578;47.892;9.970;2024-01-06T23:12:43;2.60;;;2.40;;
35462;SDS011;21578;47.892;9.970;2024-01-06T23:17:30;2.90;;;2.60;;
35462;SDS011;21578;47.892;9.970;2024-01-06T23:22:16;3.07;;;2.77;;
35462;SDS011;21578;47.892;9.970;2024-01-06T23:27:03;2.87;;;2.60;;
35462;SDS011;21578;47.892;9.970;2024-01-06T23:31:51;3.43;;;3.10;;
35462;SDS011;21578;47.892;9.970;2024-01-06T23:36:38;3.10;;;2.80;;
35462;SDS011;21578;47.892;9.970;2024-01-06T23:41:25;3.23;;;2.93;;
35462;SDS011;21578;47.892;9.970;2024-01-06T23:46:11;2.67;;;2.47;;
35462;SDS011;21578;47.892;9.970;2024-01-06T23:51:00;2.70;;;2.43;;
35462;SDS011;21578;47.892;9.970;2024-01-06T23:55:46;3.17;;;2.87;;
